Airfield :
LOGIN :

Register | Disclaimer

   EN    FR    IT 

 










Legend :    VFR   Marginal VFR   IFR   Intensive IFR   Very Intensive IFR
Visi :
Ceiling :
>= 8 km
>= 3000ft
5 to 8 km
1000 to 3000 ft
1500m to 5 km
500 to 1000 ft
800 to 1500m
200 to 500 ft
< 800m
< 200 ft
Symbols :   Thunderstorms  Fog  Heavy snow  Heavy precipitations  Wind > 20 kt
SIGMETs :     Misc.  Thunderstorms  Icing  Turbulence  Mountain Waves  Volcanic Ashes







- Airport Elevation : 600 ft
- IATA code : VIE


LOWW - Vienna Schwechat

CURRENT METAR :
  • 241520Z 33012KT 9999 FEW030 BKN032 12/05 Q1026 NOSIG

EXPIRED METARs :
  • 241450Z 33014KT 9999 FEW020 BKN030 12/05 Q1026 NOSIG
  • 241420Z 34013KT 9999 FEW020 BKN028 12/06 Q1026 NOSIG
  • 241350Z 33012KT 300V360 9999 FEW024 SCT026 BKN028 12/06 Q1026 NOSIG
  • 241320Z 33012KT 300V360 9999 FEW022 BKN026 11/06 Q1026 NOSIG
  • 241250Z 33011KT 9999 FEW020 SCT024 BKN026 11/06 Q1026 NOSIG

TAF TAF LOWW
Valid from the 24 at 12:00 until the 25 at 18:00 UTC


241115Z 2412/2518 32013KT 9999 BKN025 TX14/2514Z TN04/2503Z
BECMG 2415/2417 36007KT SCT030
BECMG 2503/2505 BKN020
BECMG 2510/2512 CAVOK
No reported NOTAMs for that airfield.



MET'MAP, your aeronautical weather chart ! - Copyright ORBIFLY December 2007 - Disclaimer

ORBIFLY MET'MAP TEAM :

Programming & Development : Alexandra Zaïnal
Concept & Development : Baudouin d'Aumeries
Co-Development & Prog : Marc-Olivier Méhu
Technical & hardware support : Manuel Goepfert

Contact : metmap@orbifly.com




SOURCES & CREDITS :

   NOAA